sim
Sign-in with your pilot id or email,
or register
Callsign
Passwort

Schedule Details

Flight Number: DLH2007
Departure: Dusseldorf International Airport (EDDL) at 09:25
Arrival: Munich Airport (EDDM) at 10:35
Route: Lufthansa Passenger Schedule. Enter filed route here before submitting Pirep.

Weather Information
Getting current METAR information for EDDL 291650Z 15008KT 9999 FEW046 14/12 Q1017 NOSIG
Getting current METAR information for EDDM 291650Z 26007KT 9999 BKN017 11/09 Q1019 NOSIG

Schedule Frequency

Route Map